Time;durP1;ratioP1;P1;durP2;ratioP2;P2;SDS_P1;SDS_P2;PMS_P1;PMS_P2;Temp;Humidity;BMP_temperature;BMP_pressure;BME280_temperature;BME280_humidity;BME280_pressure;Samples;Min_cycle;Max_cycle;Signal;HPM_P1;HPM_P2
2024/03/12 06:24:57;;;;;;;30.60;9.10;;;6.90;99.90;;;;;;5174095;22;20186;-94
2024/03/12 06:31:08;;;;;;;19.70;7.10;;;7.20;99.90;;;;;;4933858;24;20241;-96
2024/03/12 06:37:09;;;;;;;;;;;;;;;;;;;;;
2024/03/12 06:51:40;;;;;;;21.27;8.20;;;7.60;99.90;;;;;;5199103;22;20243;-96
2024/03/12 06:57:06;;;;;;;23.23;9.53;;;7.40;99.90;;;;;;5178042;22;20205;-95
2024/03/12 07:03:21;;;;;;;24.43;8.83;;;7.60;99.90;;;;;;5121550;23;20192;-96
2024/03/12 07:06:07;;;;;;;30.80;14.00;;;7.80;99.90;;;;;;5097628;23;20161;-96
2024/03/12 07:09:41;;;;;;;;;;;;;;;;;;;;;
2024/03/12 07:12:48;;;;;;;23.30;10.50;;;7.90;99.90;;;;;;5054620;23;20624;-96
2024/03/12 07:19:06;;;;;;;;;;;;;;;;;;;;;
2024/03/12 07:21:53;;;;;;;31.45;9.07;;;7.90;99.90;;;;;;5050233;23;20196;-95
2024/03/12 07:28:00;;;;;;;;;;;;;;;;;;;;;
2024/03/12 08:07:26;;;;;;;20.63;8.37;;;8.10;99.90;;;;;;5200676;22;20231;-96
2024/03/12 08:10:12;;;;;;;23.27;8.27;;;7.90;99.90;;;;;;5188090;22;20222;-96
2024/03/12 08:16:21;;;;;;;20.90;8.23;;;7.70;99.90;;;;;;5100746;23;20246;-96
2024/03/12 08:29:57;;;;;;;26.23;8.93;;;8.00;99.90;;;;;;4894694;24;20214;-96
2024/03/12 08:35:35;;;;;;;20.40;8.10;;;8.00;99.90;;;;;;4919830;23;20222;-96
2024/03/12 08:48:21;;;;;;;30.20;10.65;;;8.20;99.90;;;;;;5222553;22;20204;-96
2024/03/12 08:55:33;;;;;;;24.30;8.63;;;8.70;99.90;;;;;;4958482;23;20175;-96
2024/03/12 09:09:07;;;;;;;;;;;;;;;;;;;;;
2024/03/12 09:12:32;;;;;;;;;;;;;;;;;;;;;
2024/03/12 09:15:27;;;;;;;;;;;;;;;;;;;;;
2024/03/12 09:18:39;;;;;;;25.23;9.88;;;9.00;99.90;;;;;;5049047;23;20209;-96
2024/03/12 09:21:41;;;;;;;;;;;;;;;;;;;;;
2024/03/12 09:24:54;;;;;;;28.52;10.98;;;9.40;99.90;;;;;;5099261;23;20200;-96
2024/03/12 09:27:15;;;;;;;33.80;11.68;;;10.00;99.90;;;;;;5072639;23;20161;-96
2024/03/12 09:29:27;;;;;;;31.67;10.88;;;10.10;99.90;;;;;;5052455;23;20182;-96
2024/03/12 09:31:38;;;;;;;27.85;10.90;;;10.20;99.90;;;;;;5095217;23;20178;-96
2024/03/12 09:33:57;;;;;;;35.47;12.27;;;10.00;99.90;;;;;;5152081;23;20152;-96
2024/03/12 09:36:10;;;;;;;29.58;10.35;;;9.80;99.90;;;;;;5205708;22;20210;-96
2024/03/12 09:38:40;;;;;;;;;;;;;;;;;;;;;
2024/03/12 09:41:35;;;;;;;43.92;12.15;;;9.70;99.90;;;;;;5206388;22;20206;-94
2024/03/12 09:44:04;;;;;;;39.17;12.32;;;10.00;99.90;;;;;;5179606;22;20214;-96
2024/03/12 09:46:42;;;;;;;25.38;9.73;;;9.90;99.90;;;;;;5182254;22;20230;-96
2024/03/12 09:48:50;;;;;;;35.10;12.05;;;10.00;99.90;;;;;;5149391;23;20170;-96
2024/03/12 09:51:25;;;;;;;27.35;11.32;;;9.90;99.90;;;;;;5150334;23;20148;-96
2024/03/12 09:53:48;;;;;;;32.92;11.68;;;9.80;99.90;;;;;;5122403;23;20156;-96
2024/03/12 09:56:06;;;;;;;38.42;11.73;;;9.90;99.90;;;;;;5097289;23;20239;-95
2024/03/12 09:58:56;;;;;;;36.35;12.10;;;9.80;99.90;;;;;;5095894;23;20174;-96
2024/03/12 10:01:19;;;;;;;38.15;11.75;;;9.70;99.90;;;;;;5001228;23;20163;-96
2024/03/12 10:03:48;;;;;;;34.63;10.70;;;9.80;99.90;;;;;;5059835;23;20189;-96
2024/03/12 10:06:45;;;;;;;35.10;12.55;;;10.00;99.90;;;;;;5074840;23;20712;-96
2024/03/12 10:09:05;;;;;;;35.50;13.45;;;10.10;99.90;;;;;;5121910;23;20156;-95
2024/03/12 10:12:04;;;;;;;;;;;;;;;;;;;;;
2024/03/12 10:15:01;;;;;;;29.90;12.15;;;10.10;99.90;;;;;;5210704;22;20150;-96
2024/03/12 10:17:20;;;;;;;34.30;12.40;;;10.10;99.90;;;;;;5175357;23;20519;-96
2024/03/12 14:07:40;;;;;;;;;;;;;;;;;;;;;
2024/03/12 14:10:37;;;;;;;6.40;3.58;;;10.10;99.90;;;;;;5030080;23;20190;-96
2024/03/12 16:23:25;;;;;;;;;;;;;;;;;;;;;
2024/03/12 16:25:43;;;;;;;0.93;0.60;;;9.60;99.90;;;;;;5208754;22;20158;-96
2024/03/12 16:28:38;;;;;;;1.27;0.68;;;9.60;99.90;;;;;;5184612;22;20143;-96
2024/03/12 16:31:23;;;;;;;;;;;;;;;;;;;;;
2024/03/12 16:34:38;;;;;;;1.83;0.63;;;9.60;99.90;;;;;;5209518;22;20153;-96
2024/03/12 16:47:22;;;;;;;0.90;0.70;;;9.60;99.90;;;;;;5223479;22;20284;-96
2024/03/12 16:50:40;;;;;;;;;;;;;;;;;;;;;
2024/03/12 16:53:02;;;;;;;0.47;0.25;;;9.60;99.90;;;;;;5001629;23;20166;-95
2024/03/12 16:55:36;;;;;;;1.50;0.98;;;9.60;99.90;;;;;;4981921;23;20156;-96
2024/03/12 16:58:23;;;;;;;1.02;0.73;;;9.60;99.90;;;;;;4996513;23;20163;-96
2024/03/12 17:03:29;;;;;;;;;;;;;;;;;;;;;
2024/03/12 17:05:41;;;;;;;2.25;0.85;;;9.70;99.90;;;;;;4982896;23;20240;-96
2024/03/12 17:08:06;;;;;;;2.05;0.70;;;9.80;99.90;;;;;;4987694;23;20167;-95
2024/03/12 17:10:17;;;;;;;1.98;0.93;;;9.70;99.90;;;;;;5058066;23;20206;-95
2024/03/12 17:12:27;;;;;;;1.67;0.70;;;9.80;99.90;;;;;;5081576;23;20154;-94
2024/03/12 17:14:30;;;;;;;1.23;0.70;;;9.70;99.90;;;;;;5104194;23;20156;-95
2024/03/12 17:16:47;;;;;;;2.42;1.08;;;9.70;99.90;;;;;;5056990;23;20178;-96
2024/03/12 17:18:51;;;;;;;1.52;0.73;;;9.80;99.90;;;;;;5080737;23;20160;-95
2024/03/12 17:21:09;;;;;;;5.85;0.88;;;9.80;99.90;;;;;;5050407;23;20241;-95
2024/03/12 17:23:28;;;;;;;1.13;0.73;;;9.80;99.90;;;;;;5056520;23;20190;-96
2024/03/12 17:25:46;;;;;;;0.98;0.73;;;9.70;99.90;;;;;;5077596;23;20153;-96
2024/03/12 17:28:08;;;;;;;1.15;0.80;;;9.70;99.90;;;;;;5081291;23;20224;-96
2024/03/12 17:30:13;;;;;;;1.65;1.20;;;9.70;99.90;;;;;;5052868;23;20660;-95
2024/03/12 17:32:28;;;;;;;2.25;1.08;;;9.70;99.90;;;;;;5053887;23;20214;-95
2024/03/12 17:34:29;;;;;;;0.95;0.60;;;9.70;99.90;;;;;;5051233;23;20158;-95
2024/03/12 17:36:36;;;;;;;2.60;1.10;;;9.70;99.90;;;;;;5078090;23;20146;-95
2024/03/12 17:38:38;;;;;;;1.88;1.10;;;9.80;99.90;;;;;;5053037;23;20158;-96
2024/03/12 17:40:45;;;;;;;2.35;0.90;;;9.70;99.90;;;;;;5052835;23;20170;-96
2024/03/12 17:43:00;;;;;;;3.40;0.80;;;9.70;99.90;;;;;;5055302;23;20186;-96
2024/03/12 17:45:06;;;;;;;2.83;1.00;;;9.80;99.90;;;;;;5053369;23;20156;-96
2024/03/12 17:47:37;;;;;;;1.75;1.10;;;9.80;99.90;;;;;;5079252;23;20158;-94
2024/03/12 17:49:49;;;;;;;1.10;0.93;;;9.80;99.90;;;;;;5053627;23;20193;-94
2024/03/12 17:51:54;;;;;;;2.63;1.33;;;9.80;99.90;;;;;;5048915;23;20554;-95
2024/03/12 17:54:09;;;;;;;1.60;0.80;;;9.90;99.90;;;;;;5058343;23;20165;-96
2024/03/12 17:57:12;;;;;;;;;;;;;;;;;;;;;
2024/03/12 17:59:49;;;;;;;1.77;1.25;;;9.90;99.90;;;;;;5083047;23;20201;-95
2024/03/12 18:02:00;;;;;;;2.28;1.40;;;9.90;99.90;;;;;;5082387;23;20161;-95
2024/03/12 18:04:25;;;;;;;2.28;1.50;;;10.00;99.90;;;;;;5084019;23;20320;-96
2024/03/12 18:09:00;;;;;;;2.50;1.23;;;10.20;99.90;;;;;;5176573;22;20206;-96
2024/03/12 18:11:15;;;;;;;9.10;5.07;;;10.30;99.90;;;;;;5135360;23;20133;-95
2024/03/12 18:13:26;;;;;;;6.13;3.60;;;10.30;99.90;;;;;;5162570;23;20172;-96
2024/03/12 18:15:34;;;;;;;3.97;2.08;;;10.30;99.90;;;;;;5157343;23;20167;-96
2024/03/12 18:17:43;;;;;;;3.03;1.88;;;10.30;99.90;;;;;;5131310;23;20208;-96
2024/03/12 18:19:52;;;;;;;3.90;2.38;;;10.40;99.90;;;;;;5127166;23;20179;-96
2024/03/12 18:22:00;;;;;;;15.52;9.98;;;10.50;99.90;;;;;;5128022;23;20159;-95
2024/03/12 18:24:06;;;;;;;4.07;2.40;;;10.40;99.90;;;;;;5151119;23;20163;-94
2024/03/12 18:26:32;;;;;;;5.40;1.92;;;10.40;99.90;;;;;;5135367;23;20151;-95
2024/03/12 18:29:08;;;;;;;10.38;6.78;;;10.50;99.90;;;;;;5152140;23;20152;-96
2024/03/12 18:31:12;;;;;;;15.68;9.95;;;10.60;99.90;;;;;;5130594;23;20245;-95
2024/03/12 18:33:50;;;;;;;5.28;2.45;;;10.70;99.90;;;;;;5126665;23;20151;-94
2024/03/12 18:36:28;;;;;;;5.78;2.75;;;10.70;99.90;;;;;;5158679;23;20151;-96
2024/03/12 18:39:18;;;;;;;7.15;4.82;;;10.80;99.90;;;;;;5125981;23;20171;-94
2024/03/12 18:42:16;;;;;;;;;;;;;;;;;;;;;
2024/03/12 18:44:54;;;;;;;3.72;2.70;;;10.90;99.90;;;;;;5148030;23;20202;-93
2024/03/12 18:47:25;;;;;;;7.78;3.88;;;11.20;99.90;;;;;;5154491;23;20147;-95
2024/03/12 18:49:55;;;;;;;4.82;3.15;;;11.20;99.90;;;;;;5151909;23;20197;-96
2024/03/12 18:52:23;;;;;;;6.00;3.88;;;11.20;99.90;;;;;;5125588;23;20152;-94
2024/03/12 18:54:29;;;;;;;3.60;2.47;;;11.10;99.90;;;;;;5127417;23;20159;-96
2024/03/12 18:56:42;;;;;;;3.00;2.03;;;11.10;99.90;;;;;;5158561;23;20222;-94
2024/03/12 18:58:44;;;;;;;5.60;3.63;;;11.10;99.90;;;;;;5134266;23;20136;-95
2024/03/12 19:00:48;;;;;;;4.30;1.95;;;11.20;99.90;;;;;;5135308;23;20140;-93
2024/03/12 19:03:41;;;;;;;4.70;2.60;;;11.20;99.90;;;;;;5116236;23;20208;-93
2024/03/12 19:09:15;;;;;;;11.65;5.90;;;11.20;99.90;;;;;;5050821;23;20231;-95
2024/03/12 19:11:45;;;;;;;18.25;9.25;;;11.30;99.90;;;;;;5095757;23;20182;-96
2024/03/12 19:14:12;;;;;;;;;;;;;;;;;;;;;
2024/03/12 19:17:09;;;;;;;;;;;;;;;;;;;;;
2024/03/12 19:19:23;;;;;;;15.43;4.40;;;11.40;99.90;;;;;;5074119;23;20173;-95
2024/03/12 19:21:33;;;;;;;65.90;17.23;;;11.40;99.90;;;;;;5079993;23;20670;-94
2024/03/12 19:24:04;;;;;;;;;;;;;;;;;;;;;
2024/03/12 19:29:17;;;;;;;2.35;1.15;;;11.60;99.90;;;;;;5091383;23;20180;-96
2024/03/12 19:31:31;;;;;;;;;;;;;;;;;;;;;
2024/03/12 19:33:45;;;;;;;2.83;1.75;;;11.70;99.90;;;;;;5077281;23;20161;-96
2024/03/12 19:35:55;;;;;;;2.90;1.70;;;11.70;99.90;;;;;;5056532;23;20154;-96
2024/03/12 19:38:36;;;;;;;1.58;1.40;;;11.80;99.90;;;;;;5061887;23;20157;-95
2024/03/12 19:40:43;;;;;;;6.13;1.67;;;11.90;99.90;;;;;;5056119;23;20645;-96
2024/03/12 19:43:17;;;;;;;6.07;2.00;;;11.90;99.90;;;;;;5101164;23;21042;-96
2024/03/12 19:45:53;;;;;;;6.05;2.47;;;11.90;99.90;;;;;;5124662;23;20156;-95
2024/03/12 19:48:07;;;;;;;5.75;1.92;;;12.00;99.90;;;;;;5126573;23;20155;-94
2024/03/12 19:50:20;;;;;;;5.97;1.92;;;12.00;99.90;;;;;;5126800;23;20168;-96
2024/03/12 19:55:20;;;;;;;9.85;2.03;;;12.00;99.90;;;;;;5100463;23;20158;-95
2024/03/12 19:57:21;;;;;;;2.67;1.60;;;11.90;99.90;;;;;;5123264;23;20243;-96
2024/03/12 19:59:41;;;;;;;5.43;1.63;;;11.80;99.90;;;;;;5148037;23;20258;-94
2024/03/12 20:01:47;;;;;;;8.10;1.52;;;11.70;99.90;;;;;;5102508;23;20180;-94
2024/03/12 20:03:59;;;;;;;3.22;1.55;;;11.70;99.90;;;;;;5126785;23;20613;-96
2024/03/12 20:06:00;;;;;;;9.70;2.53;;;11.80;99.90;;;;;;5122232;23;20152;-96
2024/03/12 20:08:08;;;;;;;6.15;1.75;;;11.80;99.90;;;;;;5174294;23;20151;-96
2024/03/12 20:19:21;;;;;;;2.08;1.25;;;12.00;99.90;;;;;;5176077;22;20167;-96
2024/03/12 20:21:54;;;;;;;3.83;1.80;;;12.00;99.90;;;;;;5163465;23;20159;-96
2024/03/12 20:24:25;;;;;;;5.65;1.10;;;12.10;99.90;;;;;;5151938;23;20195;-96
2024/03/12 20:31:00;;;;;;;1.92;1.25;;;12.20;99.90;;;;;;5196972;22;20181;-95
2024/03/12 20:33:07;;;;;;;6.05;1.60;;;12.10;99.90;;;;;;5177123;22;20610;-96
2024/03/12 20:35:31;;;;;;;;;;;;;;;;;;;;;
2024/03/12 20:37:54;;;;;;;3.63;1.50;;;12.10;99.90;;;;;;5169859;22;20162;-95
2024/03/12 20:40:09;;;;;;;5.80;1.52;;;12.10;99.90;;;;;;5193476;22;20273;-97
2024/03/12 20:42:37;;;;;;;6.75;1.80;;;12.00;99.90;;;;;;5154107;23;20151;-96
2024/03/12 20:44:44;;;;;;;13.38;1.67;;;11.90;99.90;;;;;;5151390;23;20182;-96
2024/03/12 20:47:13;;;;;;;2.05;0.95;;;11.90;99.90;;;;;;5150706;23;20160;-96
2024/03/12 20:49:47;;;;;;;6.03;1.20;;;12.00;99.90;;;;;;5171612;22;20224;-95
2024/03/12 20:52:06;;;;;;;;;;;;;;;;;;;;;
2024/03/12 20:54:52;;;;;;;6.38;1.58;;;11.90;99.90;;;;;;5173144;23;20230;-94
2024/03/12 20:56:55;;;;;;;10.77;1.70;;;12.00;99.90;;;;;;5150347;23;20509;-95
2024/03/12 20:59:01;;;;;;;5.78;2.17;;;12.00;99.90;;;;;;5152944;23;20151;-92
2024/03/12 21:01:43;;;;;;;6.95;2.08;;;11.90;99.90;;;;;;5150756;23;20158;-95
2024/03/12 21:04:01;;;;;;;3.85;1.20;;;11.90;99.90;;;;;;5171805;22;20562;-93
2024/03/12 21:06:08;;;;;;;9.65;2.00;;;12.00;99.90;;;;;;5150865;23;20155;-93
2024/03/12 21:08:10;;;;;;;3.30;1.38;;;11.90;99.90;;;;;;5151249;23;20159;-93
2024/03/12 21:10:23;;;;;;;7.60;2.15;;;12.00;99.90;;;;;;5149778;23;20171;-94
2024/03/12 21:12:48;;;;;;;5.70;2.00;;;12.00;99.90;;;;;;5174272;23;20154;-93
2024/03/12 21:15:08;;;;;;;6.07;1.83;;;12.00;99.90;;;;;;5178161;23;20151;-94
2024/03/12 21:17:51;;;;;;;;;;;;;;;;;;;;;
